sensor_id;sensor_type;location;lat;lon;timestamp;P1;durP1;ratioP1;P2;durP2;ratioP2
18818;SDS011;9537;45.594;9.294;2023-05-14T00:00:14;2.33;;;1.90;;
18818;SDS011;9537;45.594;9.294;2023-05-14T00:01:16;2.47;;;1.67;;
18818;SDS011;9537;45.594;9.294;2023-05-14T00:02:17;1.80;;;1.63;;
18818;SDS011;9537;45.594;9.294;2023-05-14T00:03:19;2.30;;;1.87;;
18818;SDS011;9537;45.594;9.294;2023-05-14T00:04:21;2.27;;;1.80;;
18818;SDS011;9537;45.594;9.294;2023-05-14T00:05:23;4.30;;;1.77;;
18818;SDS011;9537;45.594;9.294;2023-05-14T00:06:24;2.30;;;2.10;;
18818;SDS011;9537;45.594;9.294;2023-05-14T00:07:26;2.03;;;1.60;;
18818;SDS011;9537;45.594;9.294;2023-05-14T00:08:30;2.30;;;1.87;;
18818;SDS011;9537;45.594;9.294;2023-05-14T00:09:32;1.93;;;1.73;;
18818;SDS011;9537;45.594;9.294;2023-05-14T00:10:34;2.23;;;1.60;;
18818;SDS011;9537;45.594;9.294;2023-05-14T00:11:36;1.67;;;1.53;;
18818;SDS011;9537;45.594;9.294;2023-05-14T00:12:37;1.60;;;1.50;;
18818;SDS011;9537;45.594;9.294;2023-05-14T00:13:39;2.23;;;1.70;;
18818;SDS011;9537;45.594;9.294;2023-05-14T00:14:40;3.97;;;2.03;;
18818;SDS011;9537;45.594;9.294;2023-05-14T00:15:42;1.90;;;1.70;;
18818;SDS011;9537;45.594;9.294;2023-05-14T00:16:43;2.83;;;1.70;;
18818;SDS011;9537;45.594;9.294;2023-05-14T00:17:46;1.63;;;1.53;;
18818;SDS011;9537;45.594;9.294;2023-05-14T00:18:46;2.93;;;1.80;;
18818;SDS011;9537;45.594;9.294;2023-05-14T00:19:48;2.83;;;1.80;;
18818;SDS011;9537;45.594;9.294;2023-05-14T00:20:50;1.90;;;1.70;;
18818;SDS011;9537;45.594;9.294;2023-05-14T00:21:54;2.20;;;1.80;;
18818;SDS011;9537;45.594;9.294;2023-05-14T00:22:55;2.33;;;1.73;;
18818;SDS011;9537;45.594;9.294;2023-05-14T00:23:57;2.70;;;1.90;;
18818;SDS011;9537;45.594;9.294;2023-05-14T00:24:58;1.80;;;1.70;;
18818;SDS011;9537;45.594;9.294;2023-05-14T00:26:02;2.10;;;1.80;;
18818;SDS011;9537;45.594;9.294;2023-05-14T00:27:03;1.83;;;1.73;;
18818;SDS011;9537;45.594;9.294;2023-05-14T00:28:05;4.83;;;1.73;;
18818;SDS011;9537;45.594;9.294;2023-05-14T00:29:07;3.07;;;2.13;;
18818;SDS011;9537;45.594;9.294;2023-05-14T00:30:09;1.90;;;1.70;;
18818;SDS011;9537;45.594;9.294;2023-05-14T00:31:11;2.00;;;1.77;;
18818;SDS011;9537;45.594;9.294;2023-05-14T00:32:12;1.93;;;1.73;;
18818;SDS011;9537;45.594;9.294;2023-05-14T00:33:14;2.40;;;1.90;;
18818;SDS011;9537;45.594;9.294;2023-05-14T00:34:15;5.90;;;2.00;;
18818;SDS011;9537;45.594;9.294;2023-05-14T00:35:16;2.00;;;1.77;;
18818;SDS011;9537;45.594;9.294;2023-05-14T00:36:20;1.73;;;1.63;;
18818;SDS011;9537;45.594;9.294;2023-05-14T00:37:21;2.70;;;1.63;;
18818;SDS011;9537;45.594;9.294;2023-05-14T00:38:23;3.53;;;1.83;;
18818;SDS011;9537;45.594;9.294;2023-05-14T00:39:27;2.17;;;1.67;;
18818;SDS011;9537;45.594;9.294;2023-05-14T00:40:29;2.37;;;1.87;;
18818;SDS011;9537;45.594;9.294;2023-05-14T00:41:32;1.93;;;1.70;;
18818;SDS011;9537;45.594;9.294;2023-05-14T00:42:34;1.93;;;1.67;;
18818;SDS011;9537;45.594;9.294;2023-05-14T00:43:35;2.57;;;1.57;;
18818;SDS011;9537;45.594;9.294;2023-05-14T00:44:37;3.47;;;1.70;;
18818;SDS011;9537;45.594;9.294;2023-05-14T00:45:38;2.20;;;1.73;;
18818;SDS011;9537;45.594;9.294;2023-05-14T00:46:40;2.50;;;1.60;;
18818;SDS011;9537;45.594;9.294;2023-05-14T00:47:43;5.47;;;1.67;;
18818;SDS011;9537;45.594;9.294;2023-05-14T00:48:45;3.33;;;1.50;;
18818;SDS011;9537;45.594;9.294;2023-05-14T00:49:46;2.57;;;1.60;;
18818;SDS011;9537;45.594;9.294;2023-05-14T00:50:48;1.87;;;1.70;;
18818;SDS011;9537;45.594;9.294;2023-05-14T00:51:50;2.30;;;1.73;;
18818;SDS011;9537;45.594;9.294;2023-05-14T00:52:53;3.13;;;1.70;;
18818;SDS011;9537;45.594;9.294;2023-05-14T00:53:54;2.00;;;1.80;;
18818;SDS011;9537;45.594;9.294;2023-05-14T00:54:56;1.87;;;1.50;;
18818;SDS011;9537;45.594;9.294;2023-05-14T00:55:58;1.70;;;1.60;;
18818;SDS011;9537;45.594;9.294;2023-05-14T00:57:02;2.90;;;1.60;;
18818;SDS011;9537;45.594;9.294;2023-05-14T00:58:06;4.03;;;1.83;;
18818;SDS011;9537;45.594;9.294;2023-05-14T00:59:10;3.97;;;1.70;;
18818;SDS011;9537;45.594;9.294;2023-05-14T01:00:11;2.10;;;1.83;;
18818;SDS011;9537;45.594;9.294;2023-05-14T01:01:13;1.87;;;1.70;;
18818;SDS011;9537;45.594;9.294;2023-05-14T01:02:15;4.23;;;1.90;;
18818;SDS011;9537;45.594;9.294;2023-05-14T01:03:17;5.80;;;1.93;;
18818;SDS011;9537;45.594;9.294;2023-05-14T01:04:18;2.50;;;1.60;;
18818;SDS011;9537;45.594;9.294;2023-05-14T01:05:21;2.47;;;1.83;;
18818;SDS011;9537;45.594;9.294;2023-05-14T01:06:25;1.90;;;1.43;;
18818;SDS011;9537;45.594;9.294;2023-05-14T01:07:36;2.33;;;1.83;;
18818;SDS011;9537;45.594;9.294;2023-05-14T01:08:48;3.27;;;1.40;;
18818;SDS011;9537;45.594;9.294;2023-05-14T01:10:01;2.20;;;1.60;;
18818;SDS011;9537;45.594;9.294;2023-05-14T01:11:12;1.80;;;1.60;;
18818;SDS011;9537;45.594;9.294;2023-05-14T01:12:23;1.97;;;1.50;;
18818;SDS011;9537;45.594;9.294;2023-05-14T01:13:33;2.43;;;1.80;;
18818;SDS011;9537;45.594;9.294;2023-05-14T01:14:42;2.07;;;1.80;;
18818;SDS011;9537;45.594;9.294;2023-05-14T01:15:49;1.83;;;1.70;;
18818;SDS011;9537;45.594;9.294;2023-05-14T01:16:51;3.00;;;1.60;;
18818;SDS011;9537;45.594;9.294;2023-05-14T01:17:58;2.10;;;1.57;;
18818;SDS011;9537;45.594;9.294;2023-05-14T01:19:04;2.63;;;1.87;;
18818;SDS011;9537;45.594;9.294;2023-05-14T01:20:07;2.10;;;1.90;;
18818;SDS011;9537;45.594;9.294;2023-05-14T01:21:26;2.97;;;1.60;;
18818;SDS011;9537;45.594;9.294;2023-05-14T01:22:34;1.30;;;1.20;;
18818;SDS011;9537;45.594;9.294;2023-05-14T01:23:36;2.13;;;1.67;;
18818;SDS011;9537;45.594;9.294;2023-05-14T01:24:37;2.33;;;1.80;;
18818;SDS011;9537;45.594;9.294;2023-05-14T01:25:39;1.50;;;1.40;;
18818;SDS011;9537;45.594;9.294;2023-05-14T01:26:40;1.70;;;1.60;;
18818;SDS011;9537;45.594;9.294;2023-05-14T01:27:44;2.67;;;1.70;;
18818;SDS011;9537;45.594;9.294;2023-05-14T01:28:49;2.50;;;1.50;;
18818;SDS011;9537;45.594;9.294;2023-05-14T01:29:55;2.07;;;1.80;;
18818;SDS011;9537;45.594;9.294;2023-05-14T01:31:03;2.50;;;1.70;;
18818;SDS011;9537;45.594;9.294;2023-05-14T01:32:08;2.23;;;1.93;;
18818;SDS011;9537;45.594;9.294;2023-05-14T01:33:12;1.70;;;1.60;;
18818;SDS011;9537;45.594;9.294;2023-05-14T01:34:18;2.60;;;1.80;;
18818;SDS011;9537;45.594;9.294;2023-05-14T01:35:22;2.07;;;1.87;;
18818;SDS011;9537;45.594;9.294;2023-05-14T01:36:27;2.23;;;1.73;;
18818;SDS011;9537;45.594;9.294;2023-05-14T01:37:29;3.27;;;1.87;;
18818;SDS011;9537;45.594;9.294;2023-05-14T01:38:32;2.07;;;1.70;;
18818;SDS011;9537;45.594;9.294;2023-05-14T01:39:36;1.80;;;1.70;;
18818;SDS011;9537;45.594;9.294;2023-05-14T01:40:40;2.03;;;1.50;;
18818;SDS011;9537;45.594;9.294;2023-05-14T01:41:41;1.90;;;1.80;;
18818;SDS011;9537;45.594;9.294;2023-05-14T01:42:45;1.80;;;1.70;;
18818;SDS011;9537;45.594;9.294;2023-05-14T01:43:47;4.00;;;2.00;;
18818;SDS011;9537;45.594;9.294;2023-05-14T01:44:49;3.73;;;1.70;;
18818;SDS011;9537;45.594;9.294;2023-05-14T01:45:50;2.87;;;1.90;;
18818;SDS011;9537;45.594;9.294;2023-05-14T01:46:54;3.23;;;1.90;;
18818;SDS011;9537;45.594;9.294;2023-05-14T01:47:56;2.30;;;1.83;;
18818;SDS011;9537;45.594;9.294;2023-05-14T01:48:59;2.93;;;1.77;;
18818;SDS011;9537;45.594;9.294;2023-05-14T01:50:00;2.03;;;1.80;;
18818;SDS011;9537;45.594;9.294;2023-05-14T01:51:02;2.00;;;1.70;;
18818;SDS011;9537;45.594;9.294;2023-05-14T01:52:05;3.03;;;1.63;;
18818;SDS011;9537;45.594;9.294;2023-05-14T01:53:07;3.50;;;1.90;;
18818;SDS011;9537;45.594;9.294;2023-05-14T01:54:08;1.67;;;1.57;;
18818;SDS011;9537;45.594;9.294;2023-05-14T01:55:10;1.90;;;1.80;;
18818;SDS011;9537;45.594;9.294;2023-05-14T01:56:11;2.67;;;2.00;;
18818;SDS011;9537;45.594;9.294;2023-05-14T01:57:13;5.73;;;1.83;;
18818;SDS011;9537;45.594;9.294;2023-05-14T01:58:14;2.00;;;1.80;;
18818;SDS011;9537;45.594;9.294;2023-05-14T01:59:16;2.57;;;1.90;;
18818;SDS011;9537;45.594;9.294;2023-05-14T02:00:17;2.63;;;1.90;;
18818;SDS011;9537;45.594;9.294;2023-05-14T02:01:20;2.27;;;2.00;;
18818;SDS011;9537;45.594;9.294;2023-05-14T02:02:21;3.23;;;2.20;;
18818;SDS011;9537;45.594;9.294;2023-05-14T02:03:23;2.00;;;1.80;;
18818;SDS011;9537;45.594;9.294;2023-05-14T02:04:24;3.43;;;2.10;;
18818;SDS011;9537;45.594;9.294;2023-05-14T02:05:26;2.50;;;2.30;;
18818;SDS011;9537;45.594;9.294;2023-05-14T02:06:27;2.93;;;2.10;;
18818;SDS011;9537;45.594;9.294;2023-05-14T02:07:32;3.43;;;2.03;;
18818;SDS011;9537;45.594;9.294;2023-05-14T02:08:33;2.67;;;2.07;;
18818;SDS011;9537;45.594;9.294;2023-05-14T02:09:35;2.83;;;2.30;;
18818;SDS011;9537;45.594;9.294;2023-05-14T02:10:36;2.37;;;2.00;;
18818;SDS011;9537;45.594;9.294;2023-05-14T02:11:38;3.30;;;2.03;;
18818;SDS011;9537;45.594;9.294;2023-05-14T02:12:39;3.13;;;2.30;;
18818;SDS011;9537;45.594;9.294;2023-05-14T02:13:42;3.37;;;2.60;;
18818;SDS011;9537;45.594;9.294;2023-05-14T02:14:43;2.57;;;2.13;;
18818;SDS011;9537;45.594;9.294;2023-05-14T02:15:45;3.03;;;2.23;;
18818;SDS011;9537;45.594;9.294;2023-05-14T02:16:46;3.87;;;2.40;;
18818;SDS011;9537;45.594;9.294;2023-05-14T02:17:48;4.13;;;2.13;;
18818;SDS011;9537;45.594;9.294;2023-05-14T02:18:49;2.57;;;2.37;;
18818;SDS011;9537;45.594;9.294;2023-05-14T02:19:51;3.33;;;2.60;;
18818;SDS011;9537;45.594;9.294;2023-05-14T02:20:52;4.87;;;2.60;;
18818;SDS011;9537;45.594;9.294;2023-05-14T02:21:54;3.47;;;2.63;;
18818;SDS011;9537;45.594;9.294;2023-05-14T02:22:57;5.17;;;2.40;;
18818;SDS011;9537;45.594;9.294;2023-05-14T02:23:58;2.20;;;2.00;;
18818;SDS011;9537;45.594;9.294;2023-05-14T02:24:59;2.30;;;2.10;;
18818;SDS011;9537;45.594;9.294;2023-05-14T02:26:03;3.43;;;2.30;;
18818;SDS011;9537;45.594;9.294;2023-05-14T02:27:04;4.53;;;2.67;;
18818;SDS011;9537;45.594;9.294;2023-05-14T02:28:06;3.63;;;2.43;;
18818;SDS011;9537;45.594;9.294;2023-05-14T02:29:07;4.50;;;2.50;;
18818;SDS011;9537;45.594;9.294;2023-05-14T02:30:10;3.77;;;2.77;;
18818;SDS011;9537;45.594;9.294;2023-05-14T02:31:12;4.30;;;2.40;;
18818;SDS011;9537;45.594;9.294;2023-05-14T02:32:14;2.40;;;2.07;;
18818;SDS011;9537;45.594;9.294;2023-05-14T02:33:15;2.50;;;2.20;;
18818;SDS011;9537;45.594;9.294;2023-05-14T02:34:17;2.73;;;2.03;;
18818;SDS011;9537;45.594;9.294;2023-05-14T02:35:18;3.37;;;2.40;;
18818;SDS011;9537;45.594;9.294;2023-05-14T02:36:20;2.77;;;2.23;;
18818;SDS011;9537;45.594;9.294;2023-05-14T02:37:21;2.50;;;2.30;;
18818;SDS011;9537;45.594;9.294;2023-05-14T02:38:24;3.17;;;2.23;;
18818;SDS011;9537;45.594;9.294;2023-05-14T02:39:25;3.17;;;2.40;;
18818;SDS011;9537;45.594;9.294;2023-05-14T02:40:27;4.33;;;2.50;;
18818;SDS011;9537;45.594;9.294;2023-05-14T02:41:28;3.83;;;2.37;;
18818;SDS011;9537;45.594;9.294;2023-05-14T02:42:30;2.73;;;2.53;;
18818;SDS011;9537;45.594;9.294;2023-05-14T02:43:31;6.00;;;2.70;;
18818;SDS011;9537;45.594;9.294;2023-05-14T02:44:33;3.30;;;2.10;;
18818;SDS011;9537;45.594;9.294;2023-05-14T02:45:34;6.57;;;2.90;;
18818;SDS011;9537;45.594;9.294;2023-05-14T02:46:36;3.23;;;2.70;;
18818;SDS011;9537;45.594;9.294;2023-05-14T02:47:37;4.27;;;2.77;;
18818;SDS011;9537;45.594;9.294;2023-05-14T02:48:39;6.53;;;3.00;;
18818;SDS011;9537;45.594;9.294;2023-05-14T02:49:40;3.23;;;2.63;;
18818;SDS011;9537;45.594;9.294;2023-05-14T02:50:43;3.60;;;2.60;;
18818;SDS011;9537;45.594;9.294;2023-05-14T02:51:45;3.80;;;2.47;;
18818;SDS011;9537;45.594;9.294;2023-05-14T02:52:47;5.33;;;2.60;;
18818;SDS011;9537;45.594;9.294;2023-05-14T02:53:49;3.47;;;2.57;;
18818;SDS011;9537;45.594;9.294;2023-05-14T02:54:52;3.00;;;2.53;;
18818;SDS011;9537;45.594;9.294;2023-05-14T02:55:53;4.47;;;2.53;;
18818;SDS011;9537;45.594;9.294;2023-05-14T02:56:55;2.60;;;2.37;;
18818;SDS011;9537;45.594;9.294;2023-05-14T02:57:56;3.50;;;2.40;;
18818;SDS011;9537;45.594;9.294;2023-05-14T02:58:58;3.63;;;2.63;;
18818;SDS011;9537;45.594;9.294;2023-05-14T03:00:00;2.50;;;2.30;;
18818;SDS011;9537;45.594;9.294;2023-05-14T03:01:02;2.40;;;2.10;;
18818;SDS011;9537;45.594;9.294;2023-05-14T03:02:03;2.47;;;2.10;;
18818;SDS011;9537;45.594;9.294;2023-05-14T03:03:05;5.47;;;2.40;;
18818;SDS011;9537;45.594;9.294;2023-05-14T03:04:07;2.37;;;2.17;;
18818;SDS011;9537;45.594;9.294;2023-05-14T03:05:09;3.27;;;2.40;;
18818;SDS011;9537;45.594;9.294;2023-05-14T03:06:10;2.77;;;2.00;;
18818;SDS011;9537;45.594;9.294;2023-05-14T03:07:12;3.03;;;2.13;;
18818;SDS011;9537;45.594;9.294;2023-05-14T03:08:13;2.97;;;2.20;;
18818;SDS011;9537;45.594;9.294;2023-05-14T03:09:16;3.10;;;2.80;;
18818;SDS011;9537;45.594;9.294;2023-05-14T03:10:17;2.87;;;2.23;;
18818;SDS011;9537;45.594;9.294;2023-05-14T03:11:19;4.23;;;2.20;;
18818;SDS011;9537;45.594;9.294;2023-05-14T03:12:21;3.80;;;2.90;;
18818;SDS011;9537;45.594;9.294;2023-05-14T03:13:23;4.20;;;2.57;;
18818;SDS011;9537;45.594;9.294;2023-05-14T03:14:24;2.47;;;2.27;;
18818;SDS011;9537;45.594;9.294;2023-05-14T03:15:26;3.20;;;2.40;;
18818;SDS011;9537;45.594;9.294;2023-05-14T03:16:27;2.97;;;2.67;;
18818;SDS011;9537;45.594;9.294;2023-05-14T03:17:29;4.80;;;2.80;;
18818;SDS011;9537;45.594;9.294;2023-05-14T03:18:30;2.70;;;2.50;;
18818;SDS011;9537;45.594;9.294;2023-05-14T03:19:34;2.80;;;2.57;;
18818;SDS011;9537;45.594;9.294;2023-05-14T03:20:34;3.63;;;2.70;;
18818;SDS011;9537;45.594;9.294;2023-05-14T03:21:36;3.50;;;2.60;;
18818;SDS011;9537;45.594;9.294;2023-05-14T03:22:38;2.83;;;2.50;;
18818;SDS011;9537;45.594;9.294;2023-05-14T03:23:40;5.50;;;2.80;;
18818;SDS011;9537;45.594;9.294;2023-05-14T03:24:42;3.50;;;2.67;;
18818;SDS011;9537;45.594;9.294;2023-05-14T03:25:44;4.63;;;3.20;;
18818;SDS011;9537;45.594;9.294;2023-05-14T03:26:45;4.10;;;3.10;;
18818;SDS011;9537;45.594;9.294;2023-05-14T03:27:47;4.30;;;2.97;;
18818;SDS011;9537;45.594;9.294;2023-05-14T03:28:49;4.67;;;3.40;;
18818;SDS011;9537;45.594;9.294;2023-05-14T03:29:51;3.53;;;3.23;;
18818;SDS011;9537;45.594;9.294;2023-05-14T03:30:52;3.23;;;2.90;;
18818;SDS011;9537;45.594;9.294;2023-05-14T03:31:54;3.63;;;3.30;;
18818;SDS011;9537;45.594;9.294;2023-05-14T03:32:55;4.60;;;3.10;;
18818;SDS011;9537;45.594;9.294;2023-05-14T03:33:58;4.33;;;3.37;;
18818;SDS011;9537;45.594;9.294;2023-05-14T03:34:59;4.30;;;3.43;;
18818;SDS011;9537;45.594;9.294;2023-05-14T03:36:01;4.57;;;2.83;;
18818;SDS011;9537;45.594;9.294;2023-05-14T03:37:03;3.50;;;2.87;;
18818;SDS011;9537;45.594;9.294;2023-05-14T03:38:06;3.27;;;2.97;;
18818;SDS011;9537;45.594;9.294;2023-05-14T03:39:07;3.43;;;3.13;;
18818;SDS011;9537;45.594;9.294;2023-05-14T03:40:11;4.23;;;3.20;;
18818;SDS011;9537;45.594;9.294;2023-05-14T03:41:12;3.73;;;3.33;;
18818;SDS011;9537;45.594;9.294;2023-05-14T03:42:14;3.40;;;3.10;;
18818;SDS011;9537;45.594;9.294;2023-05-14T03:43:15;4.00;;;3.60;;
18818;SDS011;9537;45.594;9.294;2023-05-14T03:44:18;4.20;;;3.73;;
18818;SDS011;9537;45.594;9.294;2023-05-14T03:45:19;4.33;;;3.63;;
18818;SDS011;9537;45.594;9.294;2023-05-14T03:46:21;3.97;;;3.30;;
18818;SDS011;9537;45.594;9.294;2023-05-14T03:47:22;3.50;;;3.20;;
18818;SDS011;9537;45.594;9.294;2023-05-14T03:48:24;7.27;;;3.40;;
18818;SDS011;9537;45.594;9.294;2023-05-14T03:49:25;3.83;;;3.10;;
18818;SDS011;9537;45.594;9.294;2023-05-14T03:50:27;3.67;;;3.33;;
18818;SDS011;9537;45.594;9.294;2023-05-14T03:51:28;4.93;;;3.43;;
18818;SDS011;9537;45.594;9.294;2023-05-14T03:52:31;5.17;;;3.33;;
18818;SDS011;9537;45.594;9.294;2023-05-14T03:53:32;3.47;;;3.13;;
18818;SDS011;9537;45.594;9.294;2023-05-14T03:54:34;5.60;;;3.00;;
18818;SDS011;9537;45.594;9.294;2023-05-14T03:55:36;4.60;;;3.07;;
18818;SDS011;9537;45.594;9.294;2023-05-14T03:56:38;3.47;;;3.17;;
18818;SDS011;9537;45.594;9.294;2023-05-14T03:57:39;8.13;;;3.30;;
18818;SDS011;9537;45.594;9.294;2023-05-14T03:58:43;4.10;;;3.27;;
18818;SDS011;9537;45.594;9.294;2023-05-14T03:59:44;5.30;;;3.50;;
18818;SDS011;9537;45.594;9.294;2023-05-14T04:00:45;4.90;;;3.33;;
18818;SDS011;9537;45.594;9.294;2023-05-14T04:01:46;5.07;;;3.20;;
18818;SDS011;9537;45.594;9.294;2023-05-14T04:02:48;3.57;;;3.20;;
18818;SDS011;9537;45.594;9.294;2023-05-14T04:03:49;4.47;;;3.57;;
18818;SDS011;9537;45.594;9.294;2023-05-14T04:04:51;3.70;;;3.40;;
18818;SDS011;9537;45.594;9.294;2023-05-14T04:05:53;3.60;;;3.30;;
18818;SDS011;9537;45.594;9.294;2023-05-14T04:06:55;3.77;;;3.27;;
18818;SDS011;9537;45.594;9.294;2023-05-14T04:07:55;6.47;;;3.00;;
18818;SDS011;9537;45.594;9.294;2023-05-14T04:08:58;3.90;;;3.50;;
18818;SDS011;9537;45.594;9.294;2023-05-14T04:09:59;5.77;;;3.23;;
18818;SDS011;9537;45.594;9.294;2023-05-14T04:11:03;4.53;;;3.50;;
18818;SDS011;9537;45.594;9.294;2023-05-14T04:12:04;3.47;;;3.17;;
18818;SDS011;9537;45.594;9.294;2023-05-14T04:13:07;3.70;;;3.40;;
18818;SDS011;9537;45.594;9.294;2023-05-14T04:14:08;3.70;;;3.40;;
18818;SDS011;9537;45.594;9.294;2023-05-14T04:15:10;3.73;;;3.10;;
18818;SDS011;9537;45.594;9.294;2023-05-14T04:16:11;4.07;;;3.30;;
18818;SDS011;9537;45.594;9.294;2023-05-14T04:17:13;3.63;;;3.10;;
18818;SDS011;9537;45.594;9.294;2023-05-14T04:18:14;3.93;;;3.30;;
18818;SDS011;9537;45.594;9.294;2023-05-14T04:19:16;3.33;;;3.03;;
18818;SDS011;9537;45.594;9.294;2023-05-14T04:20:17;5.03;;;3.23;;
18818;SDS011;9537;45.594;9.294;2023-05-14T04:21:19;7.07;;;3.50;;
18818;SDS011;9537;45.594;9.294;2023-05-14T04:22:20;3.70;;;3.40;;
18818;SDS011;9537;45.594;9.294;2023-05-14T04:23:23;5.13;;;3.37;;
18818;SDS011;9537;45.594;9.294;2023-05-14T04:24:23;3.63;;;3.30;;
18818;SDS011;9537;45.594;9.294;2023-05-14T04:25:25;3.50;;;3.20;;
18818;SDS011;9537;45.594;9.294;2023-05-14T04:26:28;3.53;;;3.23;;
18818;SDS011;9537;45.594;9.294;2023-05-14T04:27:31;3.47;;;3.17;;
18818;SDS011;9537;45.594;9.294;2023-05-14T04:28:32;3.00;;;2.80;;
18818;SDS011;9537;45.594;9.294;2023-05-14T04:29:34;3.83;;;2.97;;
18818;SDS011;9537;45.594;9.294;2023-05-14T04:30:35;4.10;;;2.93;;
18818;SDS011;9537;45.594;9.294;2023-05-14T04:31:37;3.77;;;3.20;;
18818;SDS011;9537;45.594;9.294;2023-05-14T04:32:39;4.07;;;2.70;;
18818;SDS011;9537;45.594;9.294;2023-05-14T04:33:41;3.53;;;2.80;;
18818;SDS011;9537;45.594;9.294;2023-05-14T04:34:42;3.00;;;2.60;;
18818;SDS011;9537;45.594;9.294;2023-05-14T04:35:45;3.10;;;2.50;;
18818;SDS011;9537;45.594;9.294;2023-05-14T04:36:46;3.77;;;2.50;;
18818;SDS011;9537;45.594;9.294;2023-05-14T04:37:48;3.57;;;2.80;;
18818;SDS011;9537;45.594;9.294;2023-05-14T04:38:49;3.83;;;2.80;;
18818;SDS011;9537;45.594;9.294;2023-05-14T04:39:51;2.40;;;2.20;;
18818;SDS011;9537;45.594;9.294;2023-05-14T04:40:52;2.97;;;2.40;;
18818;SDS011;9537;45.594;9.294;2023-05-14T04:41:55;2.90;;;2.30;;
18818;SDS011;9537;45.594;9.294;2023-05-14T04:42:56;2.87;;;2.60;;
18818;SDS011;9537;45.594;9.294;2023-05-14T04:43:59;2.90;;;2.60;;
18818;SDS011;9537;45.594;9.294;2023-05-14T04:45:00;3.83;;;2.63;;
18818;SDS011;9537;45.594;9.294;2023-05-14T04:46:04;2.80;;;2.40;;
18818;SDS011;9537;45.594;9.294;2023-05-14T04:47:05;3.30;;;2.37;;
18818;SDS011;9537;45.594;9.294;2023-05-14T04:48:07;3.13;;;2.70;;
18818;SDS011;9537;45.594;9.294;2023-05-14T04:49:08;2.40;;;2.20;;
18818;SDS011;9537;45.594;9.294;2023-05-14T04:50:11;2.90;;;2.27;;
18818;SDS011;9537;45.594;9.294;2023-05-14T04:51:12;3.13;;;2.30;;
18818;SDS011;9537;45.594;9.294;2023-05-14T04:52:13;2.83;;;2.40;;
18818;SDS011;9537;45.594;9.294;2023-05-14T04:53:14;2.83;;;2.53;;
18818;SDS011;9537;45.594;9.294;2023-05-14T04:54:16;2.43;;;2.23;;
18818;SDS011;9537;45.594;9.294;2023-05-14T04:55:17;2.40;;;2.20;;
18818;SDS011;9537;45.594;9.294;2023-05-14T04:56:19;2.47;;;2.10;;
18818;SDS011;9537;45.594;9.294;2023-05-14T04:57:22;2.63;;;2.43;;
18818;SDS011;9537;45.594;9.294;2023-05-14T04:58:24;2.77;;;2.00;;
18818;SDS011;9537;45.594;9.294;2023-05-14T04:59:28;2.40;;;2.20;;
18818;SDS011;9537;45.594;9.294;2023-05-14T05:00:29;2.70;;;2.30;;
18818;SDS011;9537;45.594;9.294;2023-05-14T05:01:32;2.73;;;2.13;;
18818;SDS011;9537;45.594;9.294;2023-05-14T05:02:33;4.10;;;2.40;;
18818;SDS011;9537;45.594;9.294;2023-05-14T05:03:35;2.67;;;2.30;;
18818;SDS011;9537;45.594;9.294;2023-05-14T05:04:37;2.67;;;2.33;;
18818;SDS011;9537;45.594;9.294;2023-05-14T05:05:39;2.33;;;2.13;;
18818;SDS011;9537;45.594;9.294;2023-05-14T05:06:40;3.30;;;2.40;;
18818;SDS011;9537;45.594;9.294;2023-05-14T05:07:42;3.43;;;2.50;;
18818;SDS011;9537;45.594;9.294;2023-05-14T05:08:43;2.73;;;2.53;;
18818;SDS011;9537;45.594;9.294;2023-05-14T05:09:45;2.63;;;2.20;;
18818;SDS011;9537;45.594;9.294;2023-05-14T05:10:46;3.93;;;2.20;;
18818;SDS011;9537;45.594;9.294;2023-05-14T05:11:48;4.10;;;2.33;;
18818;SDS011;9537;45.594;9.294;2023-05-14T05:12:51;3.07;;;2.23;;
18818;SDS011;9537;45.594;9.294;2023-05-14T05:13:53;3.13;;;2.40;;
18818;SDS011;9537;45.594;9.294;2023-05-14T05:14:54;3.30;;;2.07;;
18818;SDS011;9537;45.594;9.294;2023-05-14T05:15:56;2.57;;;2.37;;
18818;SDS011;9537;45.594;9.294;2023-05-14T05:16:57;2.97;;;2.60;;
18818;SDS011;9537;45.594;9.294;2023-05-14T05:17:59;2.77;;;2.43;;
18818;SDS011;9537;45.594;9.294;2023-05-14T05:19:01;2.43;;;2.23;;
18818;SDS011;9537;45.594;9.294;2023-05-14T05:20:03;2.30;;;2.10;;
18818;SDS011;9537;45.594;9.294;2023-05-14T05:21:07;3.50;;;2.07;;
18818;SDS011;9537;45.594;9.294;2023-05-14T05:22:09;3.40;;;2.50;;
18818;SDS011;9537;45.594;9.294;2023-05-14T05:23:10;2.40;;;2.20;;
18818;SDS011;9537;45.594;9.294;2023-05-14T05:24:12;2.80;;;2.27;;
18818;SDS011;9537;45.594;9.294;2023-05-14T05:25:13;3.37;;;2.13;;
18818;SDS011;9537;45.594;9.294;2023-05-14T05:26:15;6.13;;;2.50;;
18818;SDS011;9537;45.594;9.294;2023-05-14T05:27:16;5.87;;;2.37;;
18818;SDS011;9537;45.594;9.294;2023-05-14T05:28:21;2.73;;;2.37;;
18818;SDS011;9537;45.594;9.294;2023-05-14T05:29:23;2.77;;;2.00;;
18818;SDS011;9537;45.594;9.294;2023-05-14T05:30:24;2.60;;;2.40;;
18818;SDS011;9537;45.594;9.294;2023-05-14T05:31:26;2.83;;;2.63;;
18818;SDS011;9537;45.594;9.294;2023-05-14T05:32:27;2.50;;;2.30;;
18818;SDS011;9537;45.594;9.294;2023-05-14T05:33:29;2.80;;;2.50;;
18818;SDS011;9537;45.594;9.294;2023-05-14T05:34:30;3.13;;;2.30;;
18818;SDS011;9537;45.594;9.294;2023-05-14T05:35:33;2.53;;;2.33;;
18818;SDS011;9537;45.594;9.294;2023-05-14T05:36:34;3.00;;;2.17;;
18818;SDS011;9537;45.594;9.294;2023-05-14T05:37:36;2.90;;;2.50;;
18818;SDS011;9537;45.594;9.294;2023-05-14T05:38:37;2.60;;;2.40;;
18818;SDS011;9537;45.594;9.294;2023-05-14T05:39:39;3.60;;;2.43;;
18818;SDS011;9537;45.594;9.294;2023-05-14T05:40:41;3.73;;;2.30;;
18818;SDS011;9537;45.594;9.294;2023-05-14T05:41:43;2.87;;;2.23;;
18818;SDS011;9537;45.594;9.294;2023-05-14T05:42:44;2.50;;;2.30;;
18818;SDS011;9537;45.594;9.294;2023-05-14T05:43:47;2.20;;;2.00;;
18818;SDS011;9537;45.594;9.294;2023-05-14T05:44:48;2.53;;;2.23;;
18818;SDS011;9537;45.594;9.294;2023-05-14T05:45:50;3.80;;;2.50;;
18818;SDS011;9537;45.594;9.294;2023-05-14T05:46:51;2.40;;;2.20;;
18818;SDS011;9537;45.594;9.294;2023-05-14T05:47:55;2.20;;;2.00;;
18818;SDS011;9537;45.594;9.294;2023-05-14T05:48:56;5.30;;;2.40;;
18818;SDS011;9537;45.594;9.294;2023-05-14T05:49:58;3.43;;;2.43;;
18818;SDS011;9537;45.594;9.294;2023-05-14T05:50:59;2.80;;;2.13;;
18818;SDS011;9537;45.594;9.294;2023-05-14T05:52:02;2.60;;;2.40;;
18818;SDS011;9537;45.594;9.294;2023-05-14T05:53:03;2.80;;;2.20;;
18818;SDS011;9537;45.594;9.294;2023-05-14T05:54:05;4.57;;;2.17;;
18818;SDS011;9537;45.594;9.294;2023-05-14T05:55:07;4.70;;;2.37;;
18818;SDS011;9537;45.594;9.294;2023-05-14T05:56:10;2.10;;;1.90;;
18818;SDS011;9537;45.594;9.294;2023-05-14T05:57:11;3.53;;;2.40;;
18818;SDS011;9537;45.594;9.294;2023-05-14T05:58:13;2.50;;;2.30;;
18818;SDS011;9537;45.594;9.294;2023-05-14T05:59:17;2.97;;;2.30;;
18818;SDS011;9537;45.594;9.294;2023-05-14T06:00:19;5.57;;;2.20;;
18818;SDS011;9537;45.594;9.294;2023-05-14T06:01:20;2.60;;;2.40;;
18818;SDS011;9537;45.594;9.294;2023-05-14T06:02:22;5.23;;;2.40;;
18818;SDS011;9537;45.594;9.294;2023-05-14T06:03:24;2.90;;;2.17;;
18818;SDS011;9537;45.594;9.294;2023-05-14T06:04:26;3.27;;;2.10;;
18818;SDS011;9537;45.594;9.294;2023-05-14T06:05:27;3.90;;;2.40;;
18818;SDS011;9537;45.594;9.294;2023-05-14T06:06:29;3.60;;;2.30;;
18818;SDS011;9537;45.594;9.294;2023-05-14T06:07:32;3.13;;;2.37;;
18818;SDS011;9537;45.594;9.294;2023-05-14T06:08:34;2.53;;;2.33;;
18818;SDS011;9537;45.594;9.294;2023-05-14T06:09:35;2.60;;;2.10;;
18818;SDS011;9537;45.594;9.294;2023-05-14T06:10:37;3.07;;;2.10;;
18818;SDS011;9537;45.594;9.294;2023-05-14T06:11:38;2.90;;;2.70;;
18818;SDS011;9537;45.594;9.294;2023-05-14T06:12:40;2.60;;;2.40;;
18818;SDS011;9537;45.594;9.294;2023-05-14T06:13:41;3.87;;;2.37;;
18818;SDS011;9537;45.594;9.294;2023-05-14T06:14:44;3.90;;;2.40;;
18818;SDS011;9537;45.594;9.294;2023-05-14T06:15:45;5.43;;;2.77;;
18818;SDS011;9537;45.594;9.294;2023-05-14T06:16:47;2.30;;;2.10;;
18818;SDS011;9537;45.594;9.294;2023-05-14T06:17:48;2.73;;;2.37;;
18818;SDS011;9537;45.594;9.294;2023-05-14T06:18:50;2.60;;;2.40;;
18818;SDS011;9537;45.594;9.294;2023-05-14T06:19:52;3.23;;;2.43;;